< < Back
Terminal Aerodrome Forecast


Current Version              Previous Versions:   1  2  3  4  5  6  7  8  9  

Terminal Aerodrome Forecast

538
FTUS42 KTAE 291120
TAFABY
TAF
KABY 291120Z 2912/3012 VRB03KT P6SM -SHRA BKN080 OVC250
     FM291400 08005KT P6SM SCT020 BKN080
     FM291800 07007KT P6SM SHRA VCTS BKN030CB
      TEMPO 2919/2923 1SM +TSRA=

Latest METAR

255
SAUS70 KWBC 300100 RRL
MTRABY
METAR KABY 300053Z AUTO 10007KT 10SM CLR 25/22 A3008 RMK AO2 SLP184
T02500217


USA.gov is the U.S. government's official web portal to all federal, state and local government web resources and services.